AirNav   Everest Fuels
 
 377 users online  

08M Carthage-Leake County Airport
Carthage, Mississippi, USA

GOING TO CARTHAGE?


FAA INFORMATION EFFECTIVE 05 NOVEMBER 2020

Location

FAA Identifier: 08M
Lat/Long: 32-45-41.7000N 089-31-49.4000W
32-45.695000N 089-31.823333W
32.7615833,-89.5303889
(estimated)
Elevation: 457 ft. / 139 m (estimated)
Variation: 02E (1985)
From city: 2 miles N of CARTHAGE, MS
Time zone: UTC -6 (UTC -5 during Daylight Saving Time)
Zip code: 39051

Airport Operations

Airport use: Open to the public
Activation date: 02/1964
Control tower: no
ARTCC: MEMPHIS CENTER
FSS: GREENWOOD FLIGHT SERVICE STATION
NOTAMs facility: GWO (NOTAM-D service available)
Attendance: UNATNDD
Wind indicator: lighted
Segmented circle: yes
Lights: DUSK-2200. AFT 2200 ACTVT MIRL RWY 17/35 - CTAF.
Beacon: white-green (lighted land airport)
Operates sunset to sunrise.

Airport Communications

CTAF: 122.9

Nearby radio navigation aids

VOR radial/distance  VOR name  Freq  Var
MHZr057/34.8MAGNOLIA VORTAC113.2001W

Airport Services

Fuel available: 100LL
FUEL AVAIL 24/7 WITH CREDIT CARD.
Parking: tiedowns
Airframe service: NONE
Powerplant service: NONE
Bottled oxygen: NONE
Bulk oxygen: NONE

Runway Information

Runway 17/35

Dimensions: 3000 x 75 ft. / 914 x 23 m
Surface: asphalt, in good condition
Weight bearing capacity: 
Single wheel: 20.0
Runway edge lights: medium intensity
RUNWAY 17  RUNWAY 35
Latitude: 32-45.941613N32-45.448365N
Longitude: 089-31.845990W089-31.799015W
Elevation: 457.0 ft.445.0 ft.
Traffic pattern: leftleft
Runway heading: 173 magnetic, 175 true353 magnetic, 355 true
Markings: nonprecision, in poor conditionnonprecision, in poor condition
Touchdown point: yes, no lightsyes, no lights
Obstructions: 24 ft. trees, 930 ft. from runway, 200 ft. left of centerline, 30:1 slope to clear39 ft. tree, 1125 ft. from runway, 300 ft. right of centerline, 23:1 slope to clear

Airport Ownership and Management from official FAA records

Ownership: Publicly-owned
Owner: CITY OF CARTHAGE
212 MAIN ST
CARTHAGE, MS 39051
Phone 601-267-8322
MARY ANN WILDER-VIVIANS, MAYOR.
Manager: TONY GORDON
212 MAIN ST
CARTHAGE, MS 39051
Phone 601-267-9327
CHAIRMAN OF ARPT ADZY COMMITTEE.

Airport Operational Statistics

Aircraft based on the field: 15
Single engine airplanes: 13
Multi engine airplanes: 2
    
Aircraft operations: avg 88/week *
61% local general aviation
39% transient general aviation
* for 12-month period ending 18 March 2020

Additional Remarks

FOR CD CTC MEMPHIS ARTCC AT 901-368-8453.

Instrument Procedures

There are no published instrument procedures at 08M.

Some nearby airports with instrument procedures:

KOSX - Kosciusko-Attala County Airport (20 nm N)
KMPE - Philadelphia Municipal Airport (21 nm E)
KLMS - Louisville Winston County Airport (33 nm NE)
19M - C A Moore Airport (33 nm NW)
KMBO - Bruce Campbell Field Airport (35 nm SW)
 
Loc | Ops | Rwys | IFR | FBO | Links
Com | Nav | Svcs | Stats | Notes
Area around 08M (Carthage-Leake County Airport)
 
Road maps at: MapQuest Bing Google
 
Aerial photo
WARNING: Photo may not be current or correct
Aerial photo of 08M (Carthage-Leake County Airport)
Do you have a better or more recent aerial photo of Carthage-Leake County Airport that you would like to share? If so, please send us your photo.

 
Sectional chart

 
Airport distance calculator
Flying to Carthage-Leake County Airport? Find the distance to fly.

From to 08M

Sunrise and sunset
Times for 29-Nov-2020
 Local
(UTC-6)
 Zulu
(UTC)
Morning civil twilight06:1612:16
Sunrise06:4312:43
Sunset16:5122:51
Evening civil twilight17:1823:18

Current date and time
Zulu (UTC)  29-Nov-2020 11:07:02
Local (UTC-6)  29-Nov-2020 05:07:02
 
METAR
KMBO 
35nm SW 
291055Z AUTO 00000KT 10SM DZ BKN003 BKN008 09/09 A3001 RMK AO2
KJAN 
39nm SW 
291054Z 04004KT 6SM -RA BR BKN110 11/09 A3000 RMK AO2 RAB06 SLP158 P0000 T01110094
KHKS 
43nm SW 
291053Z AUTO 10004KT 7SM -RA BKN110 11/09 A3000 RMK AO2 RAE32B50 SLP152 P0002 T01110089
KMEI 
47nm SE 
291058Z AUTO 03003KT 10SM FEW090 BKN110 11/07 A3002 RMK AO2 SLP165 T01060072
TAF
KJAN 
39nm SW 
290747Z 2908/3006 10004KT P6SM -RA BKN050 OVC110 FM291400 10004KT P6SM SHRA OVC015 FM291600 12006KT 2SM -RA BR OVC007 FM291900 04005KT 2SM -RA BR OVC003 FM292300 34007KT 4SM -RA BR OVC007 FM300100 33014G20KT 4SM -RA BR OVC007
KHKS 
43nm SW 
290749Z 2908/3006 09005KT P6SM -RA BKN050 OVC110 FM291400 10005KT 6SM SHRA OVC015 FM291600 12006KT 2SM -RA BR OVC007 FM291900 04005KT 2SM -RA BR OVC003 FM292300 34007KT 4SM -RA BR OVC007 FM300100 33014G20KT 4SM -RA BR OVC007
KMEI 
47nm SE 
290531Z 2906/3006 03004KT P6SM FEW040 FM291300 04004KT 5SM -RA OVC045 FM291600 11005KT 4SM -RA OVC025 FM291800 11005KT 4SM -RA BR OVC007 FM300100 32015G22KT 4SM -RA OVC007
NOTAMs
Click for the latest NOTAMs
NOTAMs are issued by the DoD/FAA and will open in a separate window not controlled by AirNav.

 

 
 

FBO, Fuel Providers, and Aircraft Ground Support

  
 Business Name 
 
 Contact 
 
 Services / Description 
 
Fuel Prices
 
Comments
  
Carthage-Leake County Airport 601-267-9327
no information available

If you are affiliated with Carthage-Leake County Airport and would like to show here your services, contact info, web link, logo, and more, click here
100LL
AS $3.95 
 Updated 25-Nov-2020
 
   write
AS=Assisted/Self Service
Update Fuel Prices
 

Would you like to see your business listed on this page?

 If your business provides an interesting product or service to pilots, flight crews, aircraft, or users of the Carthage-Leake County Airport, you should consider listing it here.  To start the listing process, click on the button below
 
Add a business
 

Other Pages about Carthage-Leake County Airport

Update a link
 
Copyright © AirNav, LLC. All rights reserved. Privacy Policy  Contact